sensor_id;sensor_type;location;lat;lon;timestamp;pressure;altitude;pressure_sealevel;temperature
70050;BMP180;57391;51.306;22.680;2024-01-07T00:01:49;99392.40;;;-3.00
70050;BMP180;57391;51.306;22.680;2024-01-07T00:03:52;99397.00;;;-3.00
70050;BMP180;57391;51.306;22.680;2024-01-07T00:05:53;99397.20;;;-3.00
70050;BMP180;57391;51.306;22.680;2024-01-07T00:07:55;99400.00;;;-3.02
70050;BMP180;57391;51.306;22.680;2024-01-07T00:09:57;99397.00;;;-3.10
70050;BMP180;57391;51.306;22.680;2024-01-07T00:11:59;99394.20;;;-3.10
70050;BMP180;57391;51.306;22.680;2024-01-07T00:14:00;99404.40;;;-3.10
70050;BMP180;57391;51.306;22.680;2024-01-07T00:16:03;99403.60;;;-3.10
70050;BMP180;57391;51.306;22.680;2024-01-07T00:18:05;99410.40;;;-3.18
70050;BMP180;57391;51.306;22.680;2024-01-07T00:20:07;99408.00;;;-3.20
70050;BMP180;57391;51.306;22.680;2024-01-07T00:22:10;99407.20;;;-3.20
70050;BMP180;57391;51.306;22.680;2024-01-07T00:24:11;99408.40;;;-3.20
70050;BMP180;57391;51.306;22.680;2024-01-07T00:26:13;99411.80;;;-3.20
70050;BMP180;57391;51.306;22.680;2024-01-07T00:28:15;99409.80;;;-3.20
70050;BMP180;57391;51.306;22.680;2024-01-07T00:30:18;99410.60;;;-3.20
70050;BMP180;57391;51.306;22.680;2024-01-07T00:32:20;99410.20;;;-3.28
70050;BMP180;57391;51.306;22.680;2024-01-07T00:34:22;99410.80;;;-3.30
70050;BMP180;57391;51.306;22.680;2024-01-07T00:36:24;99414.60;;;-3.30
70050;BMP180;57391;51.306;22.680;2024-01-07T00:38:26;99412.00;;;-3.30
70050;BMP180;57391;51.306;22.680;2024-01-07T00:40:28;99417.40;;;-3.30
70050;BMP180;57391;51.306;22.680;2024-01-07T00:42:30;99417.00;;;-3.30
70050;BMP180;57391;51.306;22.680;2024-01-07T00:44:32;99419.60;;;-3.28
70050;BMP180;57391;51.306;22.680;2024-01-07T00:46:33;99413.40;;;-3.28
70050;BMP180;57391;51.306;22.680;2024-01-07T00:48:35;99418.40;;;-3.30
70050;BMP180;57391;51.306;22.680;2024-01-07T00:50:37;99418.00;;;-3.30
70050;BMP180;57391;51.306;22.680;2024-01-07T00:52:39;99418.60;;;-3.30
70050;BMP180;57391;51.306;22.680;2024-01-07T00:54:44;99416.20;;;-3.30
70050;BMP180;57391;51.306;22.680;2024-01-07T00:56:45;99418.00;;;-3.30
70050;BMP180;57391;51.306;22.680;2024-01-07T00:58:47;99420.00;;;-3.30
70050;BMP180;57391;51.306;22.680;2024-01-07T01:00:49;99415.00;;;-3.38
70050;BMP180;57391;51.306;22.680;2024-01-07T01:02:51;99413.00;;;-3.40
70050;BMP180;57391;51.306;22.680;2024-01-07T01:04:53;99413.40;;;-3.38
70050;BMP180;57391;51.306;22.680;2024-01-07T01:06:54;99412.80;;;-3.40
70050;BMP180;57391;51.306;22.680;2024-01-07T01:08:56;99412.00;;;-3.40
70050;BMP180;57391;51.306;22.680;2024-01-07T01:10:58;99412.60;;;-3.40
70050;BMP180;57391;51.306;22.680;2024-01-07T01:13:00;99411.80;;;-3.40
70050;BMP180;57391;51.306;22.680;2024-01-07T01:15:02;99414.00;;;-3.40
70050;BMP180;57391;51.306;22.680;2024-01-07T01:17:03;99408.20;;;-3.40
70050;BMP180;57391;51.306;22.680;2024-01-07T01:19:05;99405.60;;;-3.40
70050;BMP180;57391;51.306;22.680;2024-01-07T01:21:07;99408.60;;;-3.50
70050;BMP180;57391;51.306;22.680;2024-01-07T01:23:09;99404.00;;;-3.50
70050;BMP180;57391;51.306;22.680;2024-01-07T01:25:11;99403.20;;;-3.50
70050;BMP180;57391;51.306;22.680;2024-01-07T01:27:13;99409.40;;;-3.50
70050;BMP180;57391;51.306;22.680;2024-01-07T01:29:16;99403.20;;;-3.50
70050;BMP180;57391;51.306;22.680;2024-01-07T01:31:18;99404.20;;;-3.50
70050;BMP180;57391;51.306;22.680;2024-01-07T01:33:19;99399.00;;;-3.50
70050;BMP180;57391;51.306;22.680;2024-01-07T01:35:21;99396.80;;;-3.50
70050;BMP180;57391;51.306;22.680;2024-01-07T01:37:23;99397.60;;;-3.50
70050;BMP180;57391;51.306;22.680;2024-01-07T01:39:25;99404.00;;;-3.50
70050;BMP180;57391;51.306;22.680;2024-01-07T01:41:27;99399.80;;;-3.50
70050;BMP180;57391;51.306;22.680;2024-01-07T01:43:29;99399.80;;;-3.50
70050;BMP180;57391;51.306;22.680;2024-01-07T01:45:30;99394.60;;;-3.50
70050;BMP180;57391;51.306;22.680;2024-01-07T01:47:33;99397.60;;;-3.50
70050;BMP180;57391;51.306;22.680;2024-01-07T01:49:35;99396.40;;;-3.50
70050;BMP180;57391;51.306;22.680;2024-01-07T01:51:39;99396.40;;;-3.50
70050;BMP180;57391;51.306;22.680;2024-01-07T01:53:41;99394.00;;;-3.50
70050;BMP180;57391;51.306;22.680;2024-01-07T01:55:43;99392.20;;;-3.50
70050;BMP180;57391;51.306;22.680;2024-01-07T01:57:46;99390.20;;;-3.50
70050;BMP180;57391;51.306;22.680;2024-01-07T01:59:49;99395.80;;;-3.50
70050;BMP180;57391;51.306;22.680;2024-01-07T02:01:50;99387.80;;;-3.50
70050;BMP180;57391;51.306;22.680;2024-01-07T02:03:52;99387.20;;;-3.50
70050;BMP180;57391;51.306;22.680;2024-01-07T02:05:57;99388.80;;;-3.50
70050;BMP180;57391;51.306;22.680;2024-01-07T02:07:59;99387.00;;;-3.50
70050;BMP180;57391;51.306;22.680;2024-01-07T02:10:01;99385.60;;;-3.50
70050;BMP180;57391;51.306;22.680;2024-01-07T02:12:04;99388.00;;;-3.50
70050;BMP180;57391;51.306;22.680;2024-01-07T02:14:06;99389.80;;;-3.50
70050;BMP180;57391;51.306;22.680;2024-01-07T02:16:08;99385.80;;;-3.54
70050;BMP180;57391;51.306;22.680;2024-01-07T02:18:10;99382.20;;;-3.50
70050;BMP180;57391;51.306;22.680;2024-01-07T02:20:12;99382.80;;;-3.52
70050;BMP180;57391;51.306;22.680;2024-01-07T02:22:14;99383.60;;;-3.58
70050;BMP180;57391;51.306;22.680;2024-01-07T02:24:17;99383.00;;;-3.60
70050;BMP180;57391;51.306;22.680;2024-01-07T02:26:18;99387.60;;;-3.60
70050;BMP180;57391;51.306;22.680;2024-01-07T02:28:20;99386.80;;;-3.60
70050;BMP180;57391;51.306;22.680;2024-01-07T02:30:22;99385.60;;;-3.60
70050;BMP180;57391;51.306;22.680;2024-01-07T02:32:24;99388.00;;;-3.60
70050;BMP180;57391;51.306;22.680;2024-01-07T02:34:26;99384.00;;;-3.60
70050;BMP180;57391;51.306;22.680;2024-01-07T02:36:28;99388.00;;;-3.60
70050;BMP180;57391;51.306;22.680;2024-01-07T02:38:29;99382.00;;;-3.60
70050;BMP180;57391;51.306;22.680;2024-01-07T02:40:31;99381.40;;;-3.60
70050;BMP180;57391;51.306;22.680;2024-01-07T02:42:33;99379.40;;;-3.60
70050;BMP180;57391;51.306;22.680;2024-01-07T02:44:35;99375.40;;;-3.60
70050;BMP180;57391;51.306;22.680;2024-01-07T02:46:37;99382.40;;;-3.60
70050;BMP180;57391;51.306;22.680;2024-01-07T02:48:38;99385.80;;;-3.60
70050;BMP180;57391;51.306;22.680;2024-01-07T02:50:40;99382.80;;;-3.60
70050;BMP180;57391;51.306;22.680;2024-01-07T02:52:42;99382.80;;;-3.60
70050;BMP180;57391;51.306;22.680;2024-01-07T02:54:44;99386.00;;;-3.62
70050;BMP180;57391;51.306;22.680;2024-01-07T02:56:46;99385.00;;;-3.62
70050;BMP180;57391;51.306;22.680;2024-01-07T02:58:48;99387.60;;;-3.60
70050;BMP180;57391;51.306;22.680;2024-01-07T03:00:50;99385.00;;;-3.60
70050;BMP180;57391;51.306;22.680;2024-01-07T03:02:51;99388.80;;;-3.60
70050;BMP180;57391;51.306;22.680;2024-01-07T03:04:54;99388.80;;;-3.60
70050;BMP180;57391;51.306;22.680;2024-01-07T03:06:56;99386.60;;;-3.60
70050;BMP180;57391;51.306;22.680;2024-01-07T03:08:58;99387.60;;;-3.62
70050;BMP180;57391;51.306;22.680;2024-01-07T03:11:05;99381.00;;;-3.70
70050;BMP180;57391;51.306;22.680;2024-01-07T03:13:07;99384.40;;;-3.68
70050;BMP180;57391;51.306;22.680;2024-01-07T03:15:09;99384.20;;;-3.70
70050;BMP180;57391;51.306;22.680;2024-01-07T03:17:11;99379.60;;;-3.70
70050;BMP180;57391;51.306;22.680;2024-01-07T03:19:13;99382.20;;;-3.70
70050;BMP180;57391;51.306;22.680;2024-01-07T03:21:23;99376.60;;;-3.70
70050;BMP180;57391;51.306;22.680;2024-01-07T03:23:25;99373.40;;;-3.70
70050;BMP180;57391;51.306;22.680;2024-01-07T03:25:26;99377.40;;;-3.70
70050;BMP180;57391;51.306;22.680;2024-01-07T03:27:29;99380.60;;;-3.70
70050;BMP180;57391;51.306;22.680;2024-01-07T03:29:31;99375.40;;;-3.70
70050;BMP180;57391;51.306;22.680;2024-01-07T03:31:34;99375.40;;;-3.70
70050;BMP180;57391;51.306;22.680;2024-01-07T03:33:40;99379.20;;;-3.70
70050;BMP180;57391;51.306;22.680;2024-01-07T03:35:42;99379.60;;;-3.70
70050;BMP180;57391;51.306;22.680;2024-01-07T03:37:44;99378.80;;;-3.68
70050;BMP180;57391;51.306;22.680;2024-01-07T03:39:47;99379.80;;;-3.60
70050;BMP180;57391;51.306;22.680;2024-01-07T03:41:49;99380.00;;;-3.60
70050;BMP180;57391;51.306;22.680;2024-01-07T03:43:51;99382.80;;;-3.60
70050;BMP180;57391;51.306;22.680;2024-01-07T03:45:54;99382.80;;;-3.60
70050;BMP180;57391;51.306;22.680;2024-01-07T03:47:55;99386.20;;;-3.60
70050;BMP180;57391;51.306;22.680;2024-01-07T03:49:57;99386.20;;;-3.60
70050;BMP180;57391;51.306;22.680;2024-01-07T03:51:59;99385.20;;;-3.60
70050;BMP180;57391;51.306;22.680;2024-01-07T03:54:00;99387.80;;;-3.60
70050;BMP180;57391;51.306;22.680;2024-01-07T03:56:02;99385.80;;;-3.62
70050;BMP180;57391;51.306;22.680;2024-01-07T03:58:05;99385.00;;;-3.70
70050;BMP180;57391;51.306;22.680;2024-01-07T04:00:08;99389.40;;;-3.70
70050;BMP180;57391;51.306;22.680;2024-01-07T04:02:11;99389.20;;;-3.70
70050;BMP180;57391;51.306;22.680;2024-01-07T04:04:13;99384.00;;;-3.70
70050;BMP180;57391;51.306;22.680;2024-01-07T04:06:15;99391.00;;;-3.70
70050;BMP180;57391;51.306;22.680;2024-01-07T04:08:17;99387.80;;;-3.70
70050;BMP180;57391;51.306;22.680;2024-01-07T04:10:19;99387.00;;;-3.70
70050;BMP180;57391;51.306;22.680;2024-01-07T04:12:20;99395.80;;;-3.70
70050;BMP180;57391;51.306;22.680;2024-01-07T04:14:22;99399.40;;;-3.70
70050;BMP180;57391;51.306;22.680;2024-01-07T04:16:24;99398.00;;;-3.78
70050;BMP180;57391;51.306;22.680;2024-01-07T04:18:25;99395.60;;;-3.78
70050;BMP180;57391;51.306;22.680;2024-01-07T04:20:27;99397.00;;;-3.80
70050;BMP180;57391;51.306;22.680;2024-01-07T04:22:29;99394.40;;;-3.80
70050;BMP180;57391;51.306;22.680;2024-01-07T04:24:30;99399.80;;;-3.80
70050;BMP180;57391;51.306;22.680;2024-01-07T04:26:32;99399.20;;;-3.80
70050;BMP180;57391;51.306;22.680;2024-01-07T04:28:34;99400.80;;;-3.80
70050;BMP180;57391;51.306;22.680;2024-01-07T04:30:36;99395.60;;;-3.80
70050;BMP180;57391;51.306;22.680;2024-01-07T04:32:37;99403.20;;;-3.80
70050;BMP180;57391;51.306;22.680;2024-01-07T04:34:39;99404.60;;;-3.80
70050;BMP180;57391;51.306;22.680;2024-01-07T04:36:41;99409.60;;;-3.80
70050;BMP180;57391;51.306;22.680;2024-01-07T04:38:42;99412.80;;;-3.80
70050;BMP180;57391;51.306;22.680;2024-01-07T04:40:44;99410.40;;;-3.84
70050;BMP180;57391;51.306;22.680;2024-01-07T04:42:46;99410.80;;;-3.84
70050;BMP180;57391;51.306;22.680;2024-01-07T04:44:48;99412.80;;;-3.80
70050;BMP180;57391;51.306;22.680;2024-01-07T04:46:49;99413.40;;;-3.82
70050;BMP180;57391;51.306;22.680;2024-01-07T04:48:51;99411.20;;;-3.90
70050;BMP180;57391;51.306;22.680;2024-01-07T04:50:53;99413.20;;;-3.90
70050;BMP180;57391;51.306;22.680;2024-01-07T04:52:55;99414.40;;;-3.90
70050;BMP180;57391;51.306;22.680;2024-01-07T04:54:56;99413.80;;;-3.94
70050;BMP180;57391;51.306;22.680;2024-01-07T04:56:58;99416.60;;;-3.94
70050;BMP180;57391;51.306;22.680;2024-01-07T04:59:00;99422.20;;;-3.90
70050;BMP180;57391;51.306;22.680;2024-01-07T05:01:02;99420.20;;;-3.98
70050;BMP180;57391;51.306;22.680;2024-01-07T05:03:03;99416.00;;;-4.00
70050;BMP180;57391;51.306;22.680;2024-01-07T05:05:08;99421.20;;;-4.00
70050;BMP180;57391;51.306;22.680;2024-01-07T05:07:10;99416.40;;;-4.00
70050;BMP180;57391;51.306;22.680;2024-01-07T05:09:12;99415.80;;;-4.02
70050;BMP180;57391;51.306;22.680;2024-01-07T05:11:14;99414.40;;;-4.02
70050;BMP180;57391;51.306;22.680;2024-01-07T05:13:15;99418.40;;;-4.00
70050;BMP180;57391;51.306;22.680;2024-01-07T05:15:17;99416.60;;;-4.00
70050;BMP180;57391;51.306;22.680;2024-01-07T05:17:19;99420.80;;;-4.00
70050;BMP180;57391;51.306;22.680;2024-01-07T05:19:21;99427.20;;;-4.00
70050;BMP180;57391;51.306;22.680;2024-01-07T05:21:23;99434.80;;;-4.00
70050;BMP180;57391;51.306;22.680;2024-01-07T05:23:25;99433.00;;;-4.00
70050;BMP180;57391;51.306;22.680;2024-01-07T05:25:26;99432.20;;;-3.96
70050;BMP180;57391;51.306;22.680;2024-01-07T05:27:28;99436.80;;;-3.90
70050;BMP180;57391;51.306;22.680;2024-01-07T05:29:30;99435.80;;;-3.90
70050;BMP180;57391;51.306;22.680;2024-01-07T05:31:32;99434.80;;;-3.90
70050;BMP180;57391;51.306;22.680;2024-01-07T05:33:34;99432.80;;;-3.90
70050;BMP180;57391;51.306;22.680;2024-01-07T05:35:35;99434.60;;;-3.90
70050;BMP180;57391;51.306;22.680;2024-01-07T05:37:37;99435.00;;;-3.90
70050;BMP180;57391;51.306;22.680;2024-01-07T05:39:39;99441.40;;;-3.90
70050;BMP180;57391;51.306;22.680;2024-01-07T05:41:40;99444.60;;;-3.94
70050;BMP180;57391;51.306;22.680;2024-01-07T05:43:42;99439.00;;;-3.96
70050;BMP180;57391;51.306;22.680;2024-01-07T05:45:44;99441.00;;;-4.00
70050;BMP180;57391;51.306;22.680;2024-01-07T05:47:46;99448.40;;;-4.00
70050;BMP180;57391;51.306;22.680;2024-01-07T05:49:47;99448.40;;;-4.00
70050;BMP180;57391;51.306;22.680;2024-01-07T05:51:49;99449.20;;;-4.00
70050;BMP180;57391;51.306;22.680;2024-01-07T05:53:51;99444.60;;;-4.00
70050;BMP180;57391;51.306;22.680;2024-01-07T05:55:52;99448.80;;;-4.00
70050;BMP180;57391;51.306;22.680;2024-01-07T05:57:54;99451.80;;;-4.00
70050;BMP180;57391;51.306;22.680;2024-01-07T05:59:55;99457.60;;;-4.00
70050;BMP180;57391;51.306;22.680;2024-01-07T06:01:58;99459.60;;;-4.00
70050;BMP180;57391;51.306;22.680;2024-01-07T06:04:00;99457.00;;;-3.98
70050;BMP180;57391;51.306;22.680;2024-01-07T06:06:02;99459.00;;;-3.98
70050;BMP180;57391;51.306;22.680;2024-01-07T06:08:05;99458.20;;;-3.98
70050;BMP180;57391;51.306;22.680;2024-01-07T06:10:08;99454.20;;;-4.00
70050;BMP180;57391;51.306;22.680;2024-01-07T06:12:10;99461.40;;;-4.00
70050;BMP180;57391;51.306;22.680;2024-01-07T06:14:11;99457.20;;;-4.00
70050;BMP180;57391;51.306;22.680;2024-01-07T06:16:13;99461.40;;;-4.08
70050;BMP180;57391;51.306;22.680;2024-01-07T06:18:15;99456.60;;;-4.08
70050;BMP180;57391;51.306;22.680;2024-01-07T06:20:17;99462.00;;;-4.10
70050;BMP180;57391;51.306;22.680;2024-01-07T06:22:19;99460.00;;;-4.10
70050;BMP180;57391;51.306;22.680;2024-01-07T06:24:21;99463.60;;;-4.10
70050;BMP180;57391;51.306;22.680;2024-01-07T06:26:22;99465.80;;;-4.10
70050;BMP180;57391;51.306;22.680;2024-01-07T06:28:24;99468.20;;;-4.10
70050;BMP180;57391;51.306;22.680;2024-01-07T06:30:26;99475.60;;;-4.10
70050;BMP180;57391;51.306;22.680;2024-01-07T06:32:28;99476.80;;;-4.10
70050;BMP180;57391;51.306;22.680;2024-01-07T06:34:29;99479.60;;;-4.18
70050;BMP180;57391;51.306;22.680;2024-01-07T06:36:31;99474.60;;;-4.20
70050;BMP180;57391;51.306;22.680;2024-01-07T06:38:34;99480.60;;;-4.20
70050;BMP180;57391;51.306;22.680;2024-01-07T06:40:35;99485.40;;;-4.20
70050;BMP180;57391;51.306;22.680;2024-01-07T06:42:37;99487.80;;;-4.20
70050;BMP180;57391;51.306;22.680;2024-01-07T06:44:39;99488.00;;;-4.28
70050;BMP180;57391;51.306;22.680;2024-01-07T06:46:41;99486.00;;;-4.30
70050;BMP180;57391;51.306;22.680;2024-01-07T06:48:42;99487.00;;;-4.30
70050;BMP180;57391;51.306;22.680;2024-01-07T06:50:44;99489.00;;;-4.40
70050;BMP180;57391;51.306;22.680;2024-01-07T06:52:46;99489.60;;;-4.40
70050;BMP180;57391;51.306;22.680;2024-01-07T06:54:47;99488.60;;;-4.40
70050;BMP180;57391;51.306;22.680;2024-01-07T06:56:49;99490.60;;;-4.40
70050;BMP180;57391;51.306;22.680;2024-01-07T06:58:51;99489.80;;;-4.40
70050;BMP180;57391;51.306;22.680;2024-01-07T07:00:53;99495.00;;;-4.50
70050;BMP180;57391;51.306;22.680;2024-01-07T07:02:55;99499.80;;;-4.60
70050;BMP180;57391;51.306;22.680;2024-01-07T07:04:57;99495.40;;;-4.66
70050;BMP180;57391;51.306;22.680;2024-01-07T07:06:59;99495.60;;;-4.70
70050;BMP180;57391;51.306;22.680;2024-01-07T07:09:01;99500.20;;;-4.80
70050;BMP180;57391;51.306;22.680;2024-01-07T07:11:03;99497.60;;;-4.80
70050;BMP180;57391;51.306;22.680;2024-01-07T07:13:05;99498.40;;;-4.80
70050;BMP180;57391;51.306;22.680;2024-01-07T07:15:07;99502.00;;;-4.80
70050;BMP180;57391;51.306;22.680;2024-01-07T07:17:11;99497.00;;;-4.80
70050;BMP180;57391;51.306;22.680;2024-01-07T07:19:12;99502.60;;;-4.80
70050;BMP180;57391;51.306;22.680;2024-01-07T07:21:16;99499.80;;;-4.82
70050;BMP180;57391;51.306;22.680;2024-01-07T07:23:18;99500.00;;;-4.90
70050;BMP180;57391;51.306;22.680;2024-01-07T07:25:20;99500.80;;;-4.90
70050;BMP180;57391;51.306;22.680;2024-01-07T07:27:21;99499.40;;;-4.90
70050;BMP180;57391;51.306;22.680;2024-01-07T07:29:23;99499.60;;;-4.90
70050;BMP180;57391;51.306;22.680;2024-01-07T07:31:25;99501.80;;;-4.90
70050;BMP180;57391;51.306;22.680;2024-01-07T07:33:27;99506.40;;;-4.90
70050;BMP180;57391;51.306;22.680;2024-01-07T07:35:28;99508.40;;;-4.90
70050;BMP180;57391;51.306;22.680;2024-01-07T07:37:30;99510.60;;;-4.90
70050;BMP180;57391;51.306;22.680;2024-01-07T07:39:32;99515.80;;;-4.90
70050;BMP180;57391;51.306;22.680;2024-01-07T07:41:33;99511.20;;;-4.90
70050;BMP180;57391;51.306;22.680;2024-01-07T07:43:35;99511.40;;;-4.90
70050;BMP180;57391;51.306;22.680;2024-01-07T07:45:37;99507.00;;;-4.90
70050;BMP180;57391;51.306;22.680;2024-01-07T07:47:39;99516.00;;;-4.90
70050;BMP180;57391;51.306;22.680;2024-01-07T07:49:46;99517.80;;;-4.90
70050;BMP180;57391;51.306;22.680;2024-01-07T07:51:47;99514.80;;;-5.00
70050;BMP180;57391;51.306;22.680;2024-01-07T07:53:49;99522.00;;;-5.00
70050;BMP180;57391;51.306;22.680;2024-01-07T07:55:51;99530.00;;;-5.00
70050;BMP180;57391;51.306;22.680;2024-01-07T07:57:53;99530.00;;;-5.00
70050;BMP180;57391;51.306;22.680;2024-01-07T07:59:54;99529.40;;;-5.00
70050;BMP180;57391;51.306;22.680;2024-01-07T08:01:56;99526.20;;;-5.00
70050;BMP180;57391;51.306;22.680;2024-01-07T08:03:58;99529.00;;;-4.98
70050;BMP180;57391;51.306;22.680;2024-01-07T08:06:00;99532.60;;;-4.96
70050;BMP180;57391;51.306;22.680;2024-01-07T08:08:01;99533.00;;;-5.00
70050;BMP180;57391;51.306;22.680;2024-01-07T08:10:04;99536.00;;;-5.00
70050;BMP180;57391;51.306;22.680;2024-01-07T08:12:06;99537.40;;;-5.10
70050;BMP180;57391;51.306;22.680;2024-01-07T08:14:08;99538.00;;;-5.10
70050;BMP180;57391;51.306;22.680;2024-01-07T08:16:10;99536.40;;;-5.14
70050;BMP180;57391;51.306;22.680;2024-01-07T08:18:12;99541.60;;;-5.12
70050;BMP180;57391;51.306;22.680;2024-01-07T08:20:14;99541.00;;;-5.12
70050;BMP180;57391;51.306;22.680;2024-01-07T08:22:16;99547.80;;;-5.10
70050;BMP180;57391;51.306;22.680;2024-01-07T08:24:17;99553.20;;;-5.10
70050;BMP180;57391;51.306;22.680;2024-01-07T08:26:20;99556.80;;;-5.10
70050;BMP180;57391;51.306;22.680;2024-01-07T08:28:22;99554.20;;;-5.10
70050;BMP180;57391;51.306;22.680;2024-01-07T08:30:24;99556.80;;;-5.10
70050;BMP180;57391;51.306;22.680;2024-01-07T08:32:25;99561.40;;;-5.10
70050;BMP180;57391;51.306;22.680;2024-01-07T08:34:27;99565.40;;;-5.10
70050;BMP180;57391;51.306;22.680;2024-01-07T08:36:29;99560.60;;;-5.10
70050;BMP180;57391;51.306;22.680;2024-01-07T08:38:34;99570.20;;;-5.10
70050;BMP180;57391;51.306;22.680;2024-01-07T08:40:35;99569.20;;;-5.10
70050;BMP180;57391;51.306;22.680;2024-01-07T08:42:37;99569.60;;;-5.10
70050;BMP180;57391;51.306;22.680;2024-01-07T08:44:39;99573.40;;;-5.10
70050;BMP180;57391;51.306;22.680;2024-01-07T08:46:40;99569.20;;;-5.10
70050;BMP180;57391;51.306;22.680;2024-01-07T08:48:42;99581.00;;;-5.10
70050;BMP180;57391;51.306;22.680;2024-01-07T08:50:44;99580.00;;;-5.04
70050;BMP180;57391;51.306;22.680;2024-01-07T08:52:47;99584.40;;;-5.00
70050;BMP180;57391;51.306;22.680;2024-01-07T08:54:51;99581.80;;;-5.00
70050;BMP180;57391;51.306;22.680;2024-01-07T08:57:00;99579.00;;;-5.00
70050;BMP180;57391;51.306;22.680;2024-01-07T08:59:02;99581.20;;;-5.00
70050;BMP180;57391;51.306;22.680;2024-01-07T09:01:05;99577.80;;;-5.06
70050;BMP180;57391;51.306;22.680;2024-01-07T09:03:07;99574.60;;;-5.08
70050;BMP180;57391;51.306;22.680;2024-01-07T09:05:09;99572.60;;;-5.06
70050;BMP180;57391;51.306;22.680;2024-01-07T09:07:11;99570.60;;;-5.00
70050;BMP180;57391;51.306;22.680;2024-01-07T09:09:13;99571.80;;;-5.00
70050;BMP180;57391;51.306;22.680;2024-01-07T09:11:19;99569.20;;;-5.04
70050;BMP180;57391;51.306;22.680;2024-01-07T09:13:21;99573.60;;;-5.10
70050;BMP180;57391;51.306;22.680;2024-01-07T09:15:23;99572.20;;;-5.10
70050;BMP180;57391;51.306;22.680;2024-01-07T09:17:26;99572.60;;;-5.10
70050;BMP180;57391;51.306;22.680;2024-01-07T09:19:28;99578.80;;;-5.18
70050;BMP180;57391;51.306;22.680;2024-01-07T09:21:30;99576.40;;;-5.20
70050;BMP180;57391;51.306;22.680;2024-01-07T09:23:32;99574.80;;;-5.20
70050;BMP180;57391;51.306;22.680;2024-01-07T09:25:35;99574.20;;;-5.20
70050;BMP180;57391;51.306;22.680;2024-01-07T09:27:37;99574.00;;;-5.20
70050;BMP180;57391;51.306;22.680;2024-01-07T09:29:39;99570.80;;;-5.20
70050;BMP180;57391;51.306;22.680;2024-01-07T09:31:41;99568.20;;;-5.28
70050;BMP180;57391;51.306;22.680;2024-01-07T09:33:42;99562.40;;;-5.30
70050;BMP180;57391;51.306;22.680;2024-01-07T09:35:44;99560.80;;;-5.30
70050;BMP180;57391;51.306;22.680;2024-01-07T09:37:46;99561.20;;;-5.24
70050;BMP180;57391;51.306;22.680;2024-01-07T09:39:48;99559.80;;;-5.20
70050;BMP180;57391;51.306;22.680;2024-01-07T09:41:50;99558.80;;;-5.22
70050;BMP180;57391;51.306;22.680;2024-01-07T09:43:53;99561.80;;;-5.20
70050;BMP180;57391;51.306;22.680;2024-01-07T09:45:57;99557.80;;;-5.20
70050;BMP180;57391;51.306;22.680;2024-01-07T09:48:00;99560.00;;;-5.20
70050;BMP180;57391;51.306;22.680;2024-01-07T09:50:01;99559.40;;;-5.20
70050;BMP180;57391;51.306;22.680;2024-01-07T09:52:04;99559.60;;;-5.20
70050;BMP180;57391;51.306;22.680;2024-01-07T09:54:08;99558.40;;;-5.10
70050;BMP180;57391;51.306;22.680;2024-01-07T09:56:29;99561.60;;;-5.10
70050;BMP180;57391;51.306;22.680;2024-01-07T09:58:36;99561.60;;;-5.10
70050;BMP180;57391;51.306;22.680;2024-01-07T10:00:38;99555.80;;;-5.10
70050;BMP180;57391;51.306;22.680;2024-01-07T10:02:41;99558.40;;;-5.10
70050;BMP180;57391;51.306;22.680;2024-01-07T10:04:43;99556.20;;;-5.10
70050;BMP180;57391;51.306;22.680;2024-01-07T10:06:47;99558.40;;;-5.10
70050;BMP180;57391;51.306;22.680;2024-01-07T10:08:50;99557.20;;;-5.00
70050;BMP180;57391;51.306;22.680;2024-01-07T10:10:52;99552.60;;;-5.00
70050;BMP180;57391;51.306;22.680;2024-01-07T10:12:55;99548.20;;;-5.00
70050;BMP180;57391;51.306;22.680;2024-01-07T10:14:58;99549.20;;;-5.00
70050;BMP180;57391;51.306;22.680;2024-01-07T10:17:00;99549.00;;;-5.00
70050;BMP180;57391;51.306;22.680;2024-01-07T10:19:02;99550.00;;;-4.92
70050;BMP180;57391;51.306;22.680;2024-01-07T10:21:06;99547.80;;;-4.90
70050;BMP180;57391;51.306;22.680;2024-01-07T10:23:08;99551.00;;;-4.90
70050;BMP180;57391;51.306;22.680;2024-01-07T10:25:10;99548.40;;;-4.90
70050;BMP180;57391;51.306;22.680;2024-01-07T10:27:12;99547.80;;;-4.90
70050;BMP180;57391;51.306;22.680;2024-01-07T10:29:14;99547.40;;;-4.90
70050;BMP180;57391;51.306;22.680;2024-01-07T10:31:17;99546.80;;;-4.92
70050;BMP180;57391;51.306;22.680;2024-01-07T10:33:19;99549.40;;;-5.00
70050;BMP180;57391;51.306;22.680;2024-01-07T10:35:28;99555.60;;;-5.00
70050;BMP180;57391;51.306;22.680;2024-01-07T10:37:32;99551.80;;;-5.00
70050;BMP180;57391;51.306;22.680;2024-01-07T10:39:34;99551.40;;;-5.00
70050;BMP180;57391;51.306;22.680;2024-01-07T10:41:37;99549.20;;;-5.04
70050;BMP180;57391;51.306;22.680;2024-01-07T10:43:48;99550.60;;;-5.06
70050;BMP180;57391;51.306;22.680;2024-01-07T10:45:51;99551.40;;;-5.08
70050;BMP180;57391;51.306;22.680;2024-01-07T10:47:58;99545.80;;;-5.06
70050;BMP180;57391;51.306;22.680;2024-01-07T10:50:03;99553.80;;;-5.10
70050;BMP180;57391;51.306;22.680;2024-01-07T10:52:07;99558.20;;;-5.10
70050;BMP180;57391;51.306;22.680;2024-01-07T10:54:12;99560.80;;;-5.10
70050;BMP180;57391;51.306;22.680;2024-01-07T10:56:22;99558.60;;;-5.10
70050;BMP180;57391;51.306;22.680;2024-01-07T10:58:25;99550.60;;;-5.10
70050;BMP180;57391;51.306;22.680;2024-01-07T11:00:28;99552.80;;;-5.10
70050;BMP180;57391;51.306;22.680;2024-01-07T11:02:30;99550.40;;;-5.08
70050;BMP180;57391;51.306;22.680;2024-01-07T11:05:14;99549.80;;;-5.08
70050;BMP180;57391;51.306;22.680;2024-01-07T11:07:33;99548.60;;;-5.10
70050;BMP180;57391;51.306;22.680;2024-01-07T11:09:53;99555.20;;;-5.10
70050;BMP180;57391;51.306;22.680;2024-01-07T11:11:57;99551.20;;;-5.10
70050;BMP180;57391;51.306;22.680;2024-01-07T11:14:00;99549.60;;;-5.18
70050;BMP180;57391;51.306;22.680;2024-01-07T11:16:09;99553.20;;;-5.14
70050;BMP180;57391;51.306;22.680;2024-01-07T11:18:20;99558.00;;;-5.10
70050;BMP180;57391;51.306;22.680;2024-01-07T11:20:23;99556.60;;;-5.10
70050;BMP180;57391;51.306;22.680;2024-01-07T11:22:28;99551.40;;;-5.10
70050;BMP180;57391;51.306;22.680;2024-01-07T11:24:39;99562.00;;;-5.10
70050;BMP180;57391;51.306;22.680;2024-01-07T11:26:42;99556.80;;;-5.08
70050;BMP180;57391;51.306;22.680;2024-01-07T11:28:55;99557.20;;;-5.02
70050;BMP180;57391;51.306;22.680;2024-01-07T11:30:58;99562.20;;;-5.04
70050;BMP180;57391;51.306;22.680;2024-01-07T11:33:00;99562.80;;;-5.10
70050;BMP180;57391;51.306;22.680;2024-01-07T11:35:02;99565.20;;;-5.08
70050;BMP180;57391;51.306;22.680;2024-01-07T11:37:10;99565.00;;;-5.00